Time;durP1;ratioP1;P1;durP2;ratioP2;P2;SDS_P1;SDS_P2;PMS_P1;PMS_P2;Temp;Humidity;BMP_temperature;BMP_pressure;BME280_temperature;BME280_humidity;BME280_pressure;Samples;Min_cycle;Max_cycle;Signal;HPM_P1;HPM_P2
2023/04/05 00:00:14;;;;;;;9.43;4.80;;;;;;;-0.61;100.00;101563.53;699995;28;1583;-63
2023/04/05 00:00:34;;;;;;;8.50;4.90;;;;;;;-0.63;100.00;101558.31;698581;28;1253;-63
2023/04/05 00:00:55;;;;;;;8.07;4.70;;;;;;;-0.64;100.00;101561.66;698895;28;4263;-63
2023/04/05 00:01:18;;;;;;;8.65;4.75;;;;;;;-0.65;100.00;101561.56;700482;28;1715;-63
2023/04/05 00:01:38;;;;;;;8.55;4.82;;;;;;;-0.69;100.00;101566.56;701012;28;1258;-63
2023/04/05 00:01:59;;;;;;;8.03;4.70;;;;;;;-0.67;100.00;101565.75;702946;28;1285;-63
2023/04/05 00:02:20;;;;;;;8.60;5.10;;;;;;;-0.64;100.00;101565.94;699841;28;1505;-63
2023/04/05 00:02:40;;;;;;;8.82;4.97;;;;;;;-0.66;100.00;101560.72;700016;28;1312;-63
2023/04/05 00:03:01;;;;;;;8.50;5.10;;;;;;;-0.65;100.00;101566.72;699945;28;1407;-63
2023/04/05 00:03:22;;;;;;;8.70;4.82;;;;;;;-0.61;100.00;101567.00;700123;28;1643;-63
2023/04/05 00:03:43;;;;;;;9.60;4.93;;;;;;;-0.59;100.00;101561.94;698520;28;4386;-63
2023/04/05 00:04:03;;;;;;;8.70;5.00;;;;;;;-0.57;100.00;101561.22;700127;28;1341;-63
2023/04/05 00:04:24;;;;;;;9.00;5.20;;;;;;;-0.56;100.00;101562.09;702861;28;1420;-63
2023/04/05 00:04:49;;;;;;;8.63;4.78;;;;;;;-0.59;100.00;101557.66;703480;28;1178;-63
2023/04/05 00:05:11;;;;;;;8.77;4.80;;;;;;;-0.58;100.00;101562.00;702502;28;1171;-64
2023/04/05 00:05:33;;;;;;;8.57;4.97;;;;;;;-0.57;100.00;101561.22;700328;28;1175;-63
2023/04/05 00:05:53;;;;;;;7.78;4.68;;;;;;;-0.56;100.00;101557.84;700584;28;1202;-63
2023/04/05 00:06:15;;;;;;;7.90;4.83;;;;;;;-0.55;100.00;101559.59;697536;28;1471;-63
2023/04/05 00:06:36;;;;;;;7.43;4.60;;;;;;;-0.55;100.00;101553.59;697821;28;1064;-63
2023/04/05 00:06:57;;;;;;;8.45;4.82;;;;;;;-0.55;100.00;101562.19;697093;28;4269;-63
2023/04/05 00:07:18;;;;;;;9.93;5.13;;;;;;;-0.55;100.00;101559.59;698543;28;1529;-63
2023/04/05 00:07:38;;;;;;;8.82;4.65;;;;;;;-0.55;100.00;101551.91;700258;28;1241;-63
2023/04/05 00:08:00;;;;;;;7.63;4.53;;;;;;;-0.51;100.00;101558.09;701147;28;1246;-63
2023/04/05 00:08:27;;;;;;;7.78;4.65;;;;;;;-0.49;100.00;101553.91;703359;28;1917;-63
2023/04/05 00:08:48;;;;;;;8.23;5.20;;;;;;;-0.54;100.00;101552.78;703100;28;1159;-63
2023/04/05 00:09:09;;;;;;;7.70;4.70;;;;;;;-0.57;100.00;101555.19;703321;28;1213;-63
2023/04/05 00:09:29;;;;;;;9.87;4.90;;;;;;;-0.56;100.00;101559.53;703383;28;1582;-63
2023/04/05 00:09:50;;;;;;;9.20;4.70;;;;;;;-0.56;100.00;101551.81;702472;28;4294;-63
2023/04/05 00:10:10;;;;;;;10.73;4.88;;;;;;;-0.54;100.00;101560.47;703548;28;1349;-63
2023/04/05 00:10:31;;;;;;;8.43;4.50;;;;;;;-0.54;100.00;101561.38;700660;28;1111;-63
2023/04/05 00:10:52;;;;;;;7.20;4.68;;;;;;;-0.52;100.00;101556.31;700101;28;1242;-63
2023/04/05 00:11:12;;;;;;;8.80;4.78;;;;;;;-0.55;100.00;101545.91;699232;28;1604;-63
2023/04/05 00:11:33;;;;;;;8.40;4.80;;;;;;;-0.54;100.00;101550.22;700187;28;1571;-62
2023/04/05 00:11:55;;;;;;;9.57;5.10;;;;;;;-0.53;100.00;101557.13;700360;28;1181;-63
2023/04/05 00:12:16;;;;;;;8.63;5.00;;;;;;;-0.53;100.00;101549.41;699364;28;1615;-63
2023/04/05 00:12:36;;;;;;;7.00;4.70;;;;;;;-0.52;100.00;101549.50;699705;28;1289;-63
2023/04/05 00:12:57;;;;;;;7.57;4.93;;;;;;;-0.53;100.00;101551.97;702954;28;4310;-63
2023/04/05 00:13:18;;;;;;;8.65;5.05;;;;;;;-0.53;100.00;101552.88;702260;28;1549;-63
2023/04/05 00:13:39;;;;;;;8.48;4.90;;;;;;;-0.55;100.00;101554.47;703301;28;1406;-63
2023/04/05 00:14:00;;;;;;;7.90;4.73;;;;;;;-0.55;100.00;101545.91;703714;28;1257;-63
2023/04/05 00:14:20;;;;;;;7.88;4.75;;;;;;;-0.52;100.00;101546.06;703040;28;1565;-63
2023/04/05 00:14:41;;;;;;;7.43;4.80;;;;;;;-0.48;100.00;101552.25;703492;28;1265;-63
2023/04/05 00:15:03;;;;;;;7.55;5.30;;;;;;;-0.50;100.00;101552.13;703061;28;1310;-63
2023/04/05 00:15:25;;;;;;;7.90;5.10;;;;;;;-0.50;100.00;101548.69;702784;28;1507;-63
2023/04/05 00:15:47;;;;;;;9.90;5.03;;;;;;;-0.52;100.00;101549.50;702405;28;4397;-63
2023/04/05 00:16:07;;;;;;;9.07;5.03;;;;;;;-0.50;100.00;101548.69;700509;28;1170;-63
2023/04/05 00:16:29;;;;;;;8.60;4.77;;;;;;;-0.52;100.00;101544.34;698563;28;3055;-63
2023/04/05 00:16:49;;;;;;;8.77;5.40;;;;;;;-0.53;100.00;101546.84;700332;28;1246;-63
2023/04/05 00:17:10;;;;;;;8.70;4.85;;;;;;;-0.51;100.00;101547.81;700362;28;1209;-63
2023/04/05 00:17:30;;;;;;;8.03;4.87;;;;;;;-0.49;100.00;101546.22;699331;28;1174;-63
2023/04/05 00:17:52;;;;;;;7.53;4.97;;;;;;;-0.49;100.00;101543.66;700924;28;1114;-63
2023/04/05 00:18:20;;;;;;;8.18;4.70;;;;;;;-0.47;100.00;101546.28;699831;28;1582;-63
2023/04/05 00:18:45;;;;;;;9.10;5.10;;;;;;;-0.52;100.00;101544.34;699851;28;4381;-63
2023/04/05 00:19:05;;;;;;;8.57;5.03;;;;;;;-0.49;100.00;101548.78;699473;28;1484;-63
2023/04/05 00:19:25;;;;;;;8.88;4.80;;;;;;;-0.45;100.00;101553.28;699566;28;1735;-63
2023/04/05 00:19:50;;;;;;;8.87;5.10;;;;;;;-0.43;100.00;101549.13;699983;28;1143;-63
2023/04/05 00:20:11;;;;;;;8.90;5.18;;;;;;;-0.43;100.00;101549.13;702871;28;1177;-63
2023/04/05 00:20:32;;;;;;;9.02;4.70;;;;;;;-0.45;100.00;101548.16;697291;28;1418;-63
2023/04/05 00:20:53;;;;;;;9.43;5.05;;;;;;;-0.48;100.00;101545.41;697454;28;1211;-63
2023/04/05 00:21:13;;;;;;;9.15;4.72;;;;;;;-0.51;100.00;101545.25;696485;28;1719;-63
2023/04/05 00:21:33;;;;;;;8.07;4.70;;;;;;;-0.52;100.00;101548.63;695975;28;1301;-63
2023/04/05 00:21:54;;;;;;;8.07;4.68;;;;;;;-0.50;100.00;101549.56;696493;28;4450;-63
2023/04/05 00:22:19;;;;;;;8.17;4.87;;;;;;;-0.50;100.00;101544.44;696932;28;1526;-63
2023/04/05 00:22:42;;;;;;;9.05;5.10;;;;;;;-0.50;100.00;101547.00;699712;28;1162;-63
2023/04/05 00:23:05;;;;;;;8.63;5.00;;;;;;;-0.51;100.00;101545.25;696763;28;1401;-63
2023/04/05 00:23:25;;;;;;;7.32;4.78;;;;;;;-0.46;100.00;101542.94;697357;28;1448;-63
2023/04/05 00:23:53;;;;;;;7.23;4.40;;;;;;;-0.43;100.00;101544.00;699238;28;1286;-63
2023/04/05 00:24:14;;;;;;;7.95;4.78;;;;;;;-0.43;100.00;101544.00;700287;28;1664;-63
2023/04/05 00:24:37;;;;;;;7.05;4.53;;;;;;;-0.43;100.00;101545.66;697332;28;1382;-63
2023/04/05 00:24:58;;;;;;;7.88;4.80;;;;;;;-0.43;100.00;101543.09;698692;28;4323;-63
2023/04/05 00:25:20;;;;;;;7.53;4.70;;;;;;;-0.44;100.00;101546.47;700335;28;1614;-63
2023/04/05 00:25:41;;;;;;;8.13;4.63;;;;;;;-0.47;100.00;101541.16;700340;28;1203;-63
2023/04/05 00:26:02;;;;;;;8.55;4.88;;;;;;;-0.46;100.00;101538.66;700247;28;1297;-63
2023/04/05 00:26:22;;;;;;;8.70;5.33;;;;;;;-0.47;100.00;101546.28;700734;28;1439;-63
2023/04/05 00:26:47;;;;;;;8.48;4.70;;;;;;;-0.49;100.00;101538.50;699320;28;1095;-63
2023/04/05 00:27:07;;;;;;;7.87;4.53;;;;;;;-0.51;100.00;101542.69;697630;28;1195;-63
2023/04/05 00:27:27;;;;;;;7.60;4.65;;;;;;;-0.52;100.00;101544.34;697392;28;1577;-63
2023/04/05 00:27:48;;;;;;;7.13;4.40;;;;;;;-0.53;100.00;101537.47;697090;28;4495;-63
2023/04/05 00:28:09;;;;;;;7.40;4.80;;;;;;;-0.52;100.00;101538.34;697841;28;1910;-63
2023/04/05 00:28:30;;;;;;;8.70;5.10;;;;;;;-0.52;100.00;101536.66;694965;28;1128;-63
2023/04/05 00:28:51;;;;;;;8.53;4.90;;;;;;;-0.50;100.00;101538.44;696682;28;1366;-63
2023/04/05 00:29:12;;;;;;;8.73;4.63;;;;;;;-0.49;100.00;101541.06;696782;28;1484;-63
2023/04/05 00:29:33;;;;;;;7.85;4.55;;;;;;;-0.49;100.00;101541.06;697572;28;1513;-63
2023/04/05 00:29:53;;;;;;;9.13;4.70;;;;;;;-0.47;100.00;101542.06;698158;28;1244;-63
2023/04/05 00:30:19;;;;;;;8.30;4.70;;;;;;;-0.46;100.00;101541.22;697563;28;1536;-63
2023/04/05 00:30:40;;;;;;;8.45;4.90;;;;;;;-0.47;100.00;101542.06;698927;28;4302;-63
2023/04/05 00:31:00;;;;;;;7.43;4.70;;;;;;;-0.47;100.00;101542.06;697665;28;1436;-63
2023/04/05 00:31:20;;;;;;;8.43;4.80;;;;;;;-0.47;100.00;101542.06;697730;28;1499;-63
2023/04/05 00:31:41;;;;;;;9.15;5.13;;;;;;;-0.49;100.00;101542.78;697074;28;1245;-61
2023/04/05 00:32:01;;;;;;;7.83;5.00;;;;;;;-0.47;100.00;101544.63;697714;28;1368;-63
2023/04/05 00:32:22;;;;;;;8.80;4.95;;;;;;;-0.45;100.00;101544.72;695224;28;1432;-63
2023/04/05 00:32:42;;;;;;;10.55;5.15;;;;;;;-0.47;100.00;101538.59;697859;28;1434;-63
2023/04/05 00:33:03;;;;;;;10.13;5.00;;;;;;;-0.45;100.00;101542.13;700522;28;1269;-63
2023/04/05 00:33:23;;;;;;;8.45;5.03;;;;;;;-0.44;100.00;101547.34;697654;28;1467;-63
2023/04/05 00:33:44;;;;;;;8.17;5.10;;;;;;;-0.43;100.00;101541.41;695416;28;5237;-63
2023/04/05 00:34:07;;;;;;;7.55;4.97;;;;;;;-0.43;100.00;101541.41;695502;28;1239;-63
2023/04/05 00:34:28;;;;;;;9.85;4.95;;;;;;;-0.45;100.00;101545.56;691935;28;1586;-63
2023/04/05 00:34:49;;;;;;;9.93;5.05;;;;;;;-0.48;100.00;101547.13;692985;28;1273;-63
2023/04/05 00:35:09;;;;;;;8.38;5.22;;;;;;;-0.48;100.00;101548.00;695164;28;1683;-63
2023/04/05 00:35:30;;;;;;;8.00;4.75;;;;;;;-0.42;100.00;101544.88;691636;28;1567;-63
2023/04/05 00:35:50;;;;;;;8.60;4.73;;;;;;;-0.38;100.00;101546.78;692380;28;1221;-63
2023/04/05 00:36:16;;;;;;;8.63;5.03;;;;;;;-0.37;100.00;101544.31;692523;28;1322;-63
2023/04/05 00:36:37;;;;;;;8.98;5.18;;;;;;;-0.36;100.00;101546.09;693692;28;1369;-63
2023/04/05 00:36:57;;;;;;;8.80;5.17;;;;;;;-0.39;100.00;101540.78;695917;28;4248;-63
2023/04/05 00:37:17;;;;;;;9.63;4.95;;;;;;;-0.38;100.00;101541.66;694660;28;1537;-63
2023/04/05 00:37:38;;;;;;;8.73;4.80;;;;;;;-0.39;100.00;101545.03;695988;28;1489;-63
2023/04/05 00:37:58;;;;;;;8.65;4.82;;;;;;;-0.41;100.00;101547.50;695051;28;1848;-62
2023/04/05 00:38:19;;;;;;;7.97;4.93;;;;;;;-0.43;100.00;101541.41;692368;28;1560;-63
2023/04/05 00:38:40;;;;;;;8.07;4.83;;;;;;;-0.45;100.00;101544.72;693646;28;1250;-63
2023/04/05 00:39:00;;;;;;;7.70;4.60;;;;;;;-0.44;100.00;101546.47;693637;28;5144;-63
2023/04/05 00:39:21;;;;;;;7.85;4.85;;;;;;;-0.44;100.00;101542.22;695365;28;1689;-63
2023/04/05 00:39:41;;;;;;;8.20;4.87;;;;;;;-0.45;100.00;101545.56;697767;28;4472;-63
2023/04/05 00:40:03;;;;;;;8.67;4.80;;;;;;;-0.43;100.00;101546.56;700666;28;1424;-63
2023/04/05 00:40:23;;;;;;;9.05;5.00;;;;;;;-0.42;100.00;101545.72;702254;28;1277;-63
2023/04/05 00:40:44;;;;;;;8.60;4.95;;;;;;;-0.43;100.00;101546.56;703661;28;1388;-63
2023/04/05 00:41:04;;;;;;;8.60;4.70;;;;;;;-0.43;100.00;101544.00;703623;28;1316;-63
2023/04/05 00:41:25;;;;;;;8.80;4.78;;;;;;;-0.43;100.00;101546.56;702074;28;1538;-63
2023/04/05 00:41:45;;;;;;;7.60;4.70;;;;;;;-0.44;100.00;101542.22;703722;28;1388;-63
2023/04/05 00:42:06;;;;;;;7.78;4.88;;;;;;;-0.41;100.00;101549.22;703710;28;1554;-63
2023/04/05 00:42:26;;;;;;;8.45;4.88;;;;;;;-0.40;100.00;101544.16;698365;28;1554;-62
2023/04/05 00:42:47;;;;;;;9.70;5.10;;;;;;;-0.37;100.00;101539.16;698918;28;4340;-63
2023/04/05 00:43:07;;;;;;;8.37;5.10;;;;;;;-0.32;100.00;101544.53;700647;28;1183;-63
2023/04/05 00:43:27;;;;;;;8.37;4.83;;;;;;;-0.29;100.00;101543.81;699408;28;1531;-63
2023/04/05 00:43:48;;;;;;;8.40;4.70;;;;;;;-0.28;100.00;101546.47;699538;28;1217;-63
2023/04/05 00:44:11;;;;;;;7.35;4.90;;;;;;;-0.30;100.00;101547.22;697477;28;1369;-63
2023/04/05 00:44:35;;;;;;;8.10;5.05;;;;;;;-0.30;100.00;101545.53;697347;28;1512;-63
2023/04/05 00:44:55;;;;;;;7.93;4.80;;;;;;;-0.28;100.00;101537.91;699291;28;1173;-63
2023/04/05 00:45:16;;;;;;;7.07;4.60;;;;;;;-0.27;100.00;101539.66;700090;28;1502;-63
2023/04/05 00:45:36;;;;;;;8.13;4.63;;;;;;;-0.23;100.00;101541.59;697121;28;1226;-63
2023/04/05 00:45:57;;;;;;;8.43;4.80;;;;;;;-0.24;100.00;101538.13;698379;28;5198;-63
2023/04/05 00:46:17;;;;;;;8.27;5.03;;;;;;;-0.24;100.00;101540.69;700825;28;1977;-63
2023/04/05 00:46:38;;;;;;;7.30;4.63;;;;;;;-0.26;100.00;101541.44;697343;28;1306;-63
2023/04/05 00:46:58;;;;;;;7.60;4.43;;;;;;;-0.26;100.00;101542.31;695259;28;1471;-63
2023/04/05 00:47:19;;;;;;;7.97;4.77;;;;;;;-0.26;100.00;101542.31;696108;28;1597;-63
2023/04/05 00:47:40;;;;;;;7.80;4.60;;;;;;;-0.24;100.00;101544.97;698028;28;1348;-63
2023/04/05 00:48:01;;;;;;;8.93;4.93;;;;;;;-0.26;100.00;101542.31;694962;28;1274;-63
2023/04/05 00:48:22;;;;;;;9.40;5.03;;;;;;;-0.30;100.00;101542.97;691953;28;2050;-63
2023/04/05 00:48:43;;;;;;;7.53;4.50;;;;;;;-0.31;100.00;101536.03;694807;28;5221;-63
2023/04/05 00:49:04;;;;;;;8.13;4.90;;;;;;;-0.33;100.00;101544.47;694963;28;1294;-63
2023/04/05 00:49:25;;;;;;;8.07;4.60;;;;;;;-0.30;100.00;101544.66;691916;28;1559;-63
2023/04/05 00:49:45;;;;;;;8.10;4.90;;;;;;;-0.27;100.00;101542.25;692131;28;1421;-63
2023/04/05 00:50:08;;;;;;;8.30;4.57;;;;;;;-0.26;100.00;101544.03;692862;28;1057;-63
2023/04/05 00:50:31;;;;;;;7.53;4.30;;;;;;;-0.26;100.00;101546.59;694282;28;1455;-63
2023/04/05 00:50:52;;;;;;;7.75;4.75;;;;;;;-0.23;100.00;101546.75;695483;28;1253;-63
2023/04/05 00:51:12;;;;;;;7.07;4.57;;;;;;;-0.22;100.00;101543.38;697778;28;1680;-63
2023/04/05 00:51:33;;;;;;;8.38;4.70;;;;;;;-0.24;100.00;101544.97;695409;28;1255;-63
2023/04/05 00:51:53;;;;;;;9.40;4.90;;;;;;;-0.29;100.00;101542.16;694782;28;5709;-63
2023/04/05 00:52:14;;;;;;;9.73;4.97;;;;;;;-0.26;100.00;101546.59;694480;28;1575;-63
2023/04/05 00:52:39;;;;;;;8.73;4.78;;;;;;;-0.19;100.00;101546.09;694503;28;1385;-63
2023/04/05 00:53:00;;;;;;;7.75;4.65;;;;;;;-0.19;100.00;101543.53;692304;28;1306;-63
2023/04/05 00:53:21;;;;;;;8.15;4.72;;;;;;;-0.20;100.00;101540.06;689734;28;1831;-63
2023/04/05 00:53:41;;;;;;;8.60;4.97;;;;;;;-0.20;100.00;101542.63;691945;28;1236;-63
2023/04/05 00:54:02;;;;;;;9.45;5.00;;;;;;;-0.19;100.00;101548.69;689815;28;1433;-63
2023/04/05 00:54:24;;;;;;;9.17;4.80;;;;;;;-0.20;100.00;101536.63;692290;28;1520;-63
2023/04/05 00:54:45;;;;;;;8.00;4.60;;;;;;;-0.20;100.00;101542.63;692401;28;4467;-63
2023/04/05 00:55:06;;;;;;;7.82;4.80;;;;;;;-0.18;100.00;101546.19;694262;28;1448;-63
2023/04/05 00:55:27;;;;;;;8.27;4.65;;;;;;;-0.16;100.00;101538.53;696627;28;1239;-63
2023/04/05 00:55:48;;;;;;;8.30;4.67;;;;;;;-0.16;100.00;101533.41;695730;28;1287;-63
2023/04/05 00:56:12;;;;;;;7.78;4.55;;;;;;;-0.14;100.00;101536.06;697346;28;1262;-63
2023/04/05 00:56:33;;;;;;;9.27;5.03;;;;;;;-0.17;100.00;101534.19;689328;28;1453;-63
2023/04/05 00:56:58;;;;;;;9.15;4.95;;;;;;;-0.17;100.00;101539.34;685993;28;1251;-63
2023/04/05 00:57:19;;;;;;;10.00;5.13;;;;;;;-0.15;100.00;101530.03;686852;28;2167;-63
2023/04/05 00:57:40;;;;;;;8.45;4.85;;;;;;;-0.12;100.00;101530.19;686269;28;4555;-63
2023/04/05 00:58:00;;;;;;;8.23;4.90;;;;;;;-0.11;100.00;101531.97;684936;28;1342;-63
2023/04/05 00:58:22;;;;;;;8.75;4.80;;;;;;;-0.12;100.00;101526.75;687297;28;1626;-63
2023/04/05 00:58:43;;;;;;;8.63;4.60;;;;;;;-0.13;100.00;101531.00;687360;28;1385;-63
2023/04/05 00:59:03;;;;;;;8.27;4.70;;;;;;;-0.18;100.00;101528.19;687904;28;1339;-63
2023/04/05 00:59:24;;;;;;;8.80;5.00;;;;;;;-0.19;100.00;101533.25;689925;28;1510;-63
2023/04/05 00:59:44;;;;;;;8.68;4.93;;;;;;;-0.19;100.00;101528.97;687540;28;1655;-63
2023/04/05 01:00:08;;;;;;;9.15;5.20;;;;;;;-0.18;100.00;101535.00;689493;28;1291;-62
2023/04/05 01:00:29;;;;;;;8.10;4.93;;;;;;;-0.20;100.00;101531.47;694192;28;1571;-62
2023/04/05 01:01:06;;;;;;;8.93;5.15;;;;;;;-0.21;100.00;101529.69;694148;28;4668;-63
2023/04/05 01:01:31;;;;;;;9.32;5.10;;;;;;;-0.15;100.00;101532.63;692170;28;1583;-63
2023/04/05 01:01:59;;;;;;;8.82;4.93;;;;;;;-0.16;100.00;101527.41;695177;28;1243;-63
2023/04/05 01:02:30;;;;;;;8.27;5.13;;;;;;;-0.13;100.00;101528.41;693884;28;1527;-63
2023/04/05 01:02:53;;;;;;;8.98;4.72;;;;;;;-0.14;100.00;101526.66;693559;28;1211;-63
2023/04/05 01:03:15;;;;;;;8.80;4.82;;;;;;;-0.18;100.00;101523.06;692644;28;1439;-63
2023/04/05 01:03:37;;;;;;;9.40;4.90;;;;;;;-0.16;100.00;101519.69;694181;28;1271;-63
2023/04/05 01:04:02;;;;;;;9.05;4.80;;;;;;;-0.15;100.00;101524.91;693730;28;4622;-63
2023/04/05 01:04:29;;;;;;;9.27;5.22;;;;;;;-0.15;100.00;101521.44;693479;28;1467;-63
2023/04/05 01:05:01;;;;;;;9.48;5.15;;;;;;;-0.16;100.00;101518.00;692710;28;1390;-63
2023/04/05 01:05:46;;;;;;;9.45;4.82;;;;;;;-0.13;100.00;101520.72;697154;28;1525;-63
2023/04/05 01:06:19;;;;;;;8.75;5.30;;;;;;;-0.15;100.00;101518.84;697064;28;1365;-63
2023/04/05 01:06:52;;;;;;;8.75;5.00;;;;;;;-0.17;100.00;101513.63;698574;28;4254;-63
2023/04/05 01:07:27;;;;;;;8.45;4.70;;;;;;;-0.18;100.00;101512.78;702418;28;1260;-63
2023/04/05 01:08:36;;;;;;;11.85;5.78;;;;;;;-0.22;100.00;101513.41;700304;28;1285;-63
2023/04/05 01:09:01;;;;;;;9.13;4.65;;;;;;;-0.22;100.00;101515.09;691634;28;1321;-62
2023/04/05 01:09:52;;;;;;;9.65;4.85;;;;;;;-0.17;100.00;101518.78;691906;28;2100;-63
2023/04/05 01:10:16;;;;;;;7.53;4.82;;;;;;;-0.14;100.00;101523.19;690585;28;5099;-63
2023/04/05 01:10:41;;;;;;;8.18;5.10;;;;;;;-0.14;100.00;101521.50;691395;28;1244;-63
2023/04/05 01:11:05;;;;;;;9.13;4.63;;;;;;;-0.13;100.00;101520.72;689697;28;1334;-62
2023/04/05 01:11:26;;;;;;;7.75;4.30;;;;;;;-0.10;100.00;101520.88;689500;28;1659;-63
2023/04/05 01:11:48;;;;;;;8.47;4.60;;;;;;;-0.09;100.00;101508.91;684543;28;1548;-63
2023/04/05 01:12:11;;;;;;;9.35;4.90;;;;;;;-0.09;100.00;101520.06;686474;28;1343;-61
2023/04/05 01:12:32;;;;;;;10.38;5.03;;;;;;;-0.10;100.00;101513.16;685482;28;1630;-63
2023/04/05 01:12:53;;;;;;;8.40;4.80;;;;;;;-0.09;100.00;101520.06;686189;28;4585;-63
2023/04/05 01:13:16;;;;;;;9.33;5.10;;;;;;;-0.10;100.00;101522.56;690054;28;1485;-63
2023/04/05 01:13:37;;;;;;;8.23;4.82;;;;;;;-0.11;100.00;101523.34;687902;28;1471;-63
2023/04/05 01:13:59;;;;;;;7.77;4.70;;;;;;;-0.08;100.00;101520.97;687209;28;1294;-63
2023/04/05 01:14:20;;;;;;;8.15;4.93;;;;;;;-0.08;100.00;101524.41;686430;28;1560;-63
2023/04/05 01:14:59;;;;;;;8.17;4.70;;;;;;;-0.08;100.00;101521.84;687611;28;1291;-63
2023/04/05 01:15:19;;;;;;;9.02;4.72;;;;;;;-0.09;100.00;101520.06;692955;28;1628;-63
2023/04/05 01:15:40;;;;;;;7.85;4.93;;;;;;;-0.09;100.00;101517.50;694937;28;4412;-63
2023/04/05 01:16:00;;;;;;;8.93;4.88;;;;;;;-0.07;100.00;101523.63;695322;28;1344;-63
2023/04/05 01:16:20;;;;;;;9.83;5.00;;;;;;;-0.07;100.00;101523.63;694400;28;1467;-63
2023/04/05 01:16:41;;;;;;;8.50;4.80;;;;;;;-0.05;100.00;101518.56;694200;28;1470;-63
2023/04/05 01:17:02;;;;;;;9.00;4.70;;;;;;;-0.05;100.00;101516.84;692728;28;1403;-63
2023/04/05 01:17:26;;;;;;;8.82;4.70;;;;;;;0.04;100.00;101521.59;692302;28;1518;-63
2023/04/05 01:17:47;;;;;;;9.93;4.90;;;;;;;0.08;100.00;101518.38;689985;28;1317;-63
2023/04/05 01:18:10;;;;;;;7.90;4.53;;;;;;;0.08;100.00;101522.63;689547;28;1316;-63
2023/04/05 01:18:31;;;;;;;7.93;4.70;;;;;;;0.07;100.00;101515.72;692144;28;1634;-63
2023/04/05 01:18:57;;;;;;;7.72;4.68;;;;;;;0.06;100.00;101524.25;695075;28;4289;-63
2023/04/05 01:19:17;;;;;;;8.05;4.78;;;;;;;0.06;100.00;101517.41;693607;28;1419;-63
2023/04/05 01:19:40;;;;;;;8.57;4.75;;;;;;;0.06;100.00;101524.25;695861;28;1242;-63
2023/04/05 01:20:10;;;;;;;9.35;4.63;;;;;;;0.07;100.00;101523.44;694715;28;1220;-63
2023/04/05 01:20:36;;;;;;;9.32;5.03;;;;;;;0.04;100.00;101520.72;691283;28;2125;-63
2023/04/05 01:21:19;;;;;;;8.60;4.53;;;;;;;0.04;100.00;101520.72;690765;28;1523;-63
2023/04/05 01:21:52;;;;;;;9.60;4.95;;;;;;;0.03;100.00;101518.94;693782;28;4293;-63
2023/04/05 01:22:36;;;;;;;8.27;4.85;;;;;;;-0.01;100.00;101523.06;696374;28;1615;-63
2023/04/05 01:23:00;;;;;;;8.70;4.68;;;;;;;0.04;100.00;101520.72;697810;28;1269;-63
2023/04/05 01:23:49;;;;;;;7.68;4.50;;;;;;;0.04;100.00;101515.56;695043;28;1321;-63
2023/04/05 01:24:37;;;;;;;8.80;4.72;;;;;;;0.02;100.00;101517.19;696868;28;1222;-63
2023/04/05 01:25:10;;;;;;;8.57;4.75;;;;;;;0.03;100.00;101524.97;694427;28;4482;-63
2023/04/05 01:25:58;;;;;;;8.32;4.60;;;;;;;0.06;100.00;101516.53;694208;28;1451;-63
2023/04/05 01:26:52;;;;;;;7.50;4.60;;;;;;;-0.01;100.00;101513.63;689216;28;2100;-63
2023/04/05 01:27:21;;;;;;;7.43;4.53;;;;;;;0.00;100.00;101519.69;695239;28;1313;-63
2023/04/05 01:27:56;;;;;;;7.43;4.78;;;;;;;0.01;100.00;101510.28;696866;28;4878;-63
2023/04/05 01:28:51;;;;;;;8.25;4.80;;;;;;;0.02;100.00;101522.34;696393;28;1917;-63
2023/04/05 01:29:37;;;;;;;8.60;4.57;;;;;;;0.02;100.00;101517.19;692810;28;1259;-63
2023/04/05 01:30:02;;;;;;;7.32;4.57;;;;;;;-0.01;100.00;101513.63;697956;28;1359;-63
2023/04/05 01:30:33;;;;;;;7.95;4.55;;;;;;;-0.01;100.00;101516.22;697272;28;1523;-63
2023/04/05 01:31:00;;;;;;;8.35;4.43;;;;;;;-0.01;100.00;101510.19;697459;28;4566;-63
2023/04/05 01:31:26;;;;;;;7.88;4.63;;;;;;;0.00;100.00;101519.69;697105;28;1517;-63
2023/04/05 01:31:55;;;;;;;8.50;4.57;;;;;;;0.09;100.00;101514.13;695529;28;1365;-63
2023/04/05 01:32:38;;;;;;;7.38;4.80;;;;;;;0.07;100.00;101518.28;695119;28;1515;-63
2023/04/05 01:33:09;;;;;;;8.15;4.80;;;;;;;0.06;100.00;101513.97;696577;28;1283;-63
2023/04/05 01:33:43;;;;;;;7.55;4.68;;;;;;;0.09;100.00;101519.28;699724;28;1688;-63
2023/04/05 01:34:30;;;;;;;7.82;4.60;;;;;;;0.05;100.00;101514.78;697273;28;6710;-62
2023/04/05 01:35:00;;;;;;;7.57;4.43;;;;;;;0.05;100.00;101515.66;696749;28;1306;-63
2023/04/05 01:35:26;;;;;;;8.05;4.47;;;;;;;0.03;100.00;101508.66;694799;28;2187;-63
2023/04/05 01:36:26;;;;;;;7.75;4.60;;;;;;;0.02;100.00;101506.91;692874;28;1411;-62
2023/04/05 01:36:53;;;;;;;7.43;4.60;;;;;;;-0.02;100.00;101509.28;694302;28;4348;-63
2023/04/05 01:37:16;;;;;;;8.07;4.65;;;;;;;-0.03;100.00;101512.69;695157;28;2088;-63
2023/04/05 01:37:38;;;;;;;9.07;4.90;;;;;;;0.01;100.00;101502.56;698363;28;1243;-63
2023/04/05 01:38:02;;;;;;;8.82;5.00;;;;;;;0.01;100.00;101507.69;698952;28;1333;-63
2023/04/05 01:38:26;;;;;;;8.52;4.95;;;;;;;0.00;100.00;101511.97;696201;28;1343;-63
2023/04/05 01:38:49;;;;;;;8.23;5.00;;;;;;;0.00;100.00;101509.41;697317;28;1532;-63
2023/04/05 01:39:14;;;;;;;8.32;4.82;;;;;;;0.02;100.00;101506.91;696916;28;1263;-63
2023/04/05 01:39:35;;;;;;;8.57;4.72;;;;;;;-0.01;100.00;101503.34;696845;28;1333;-63
2023/04/05 01:39:56;;;;;;;8.15;4.78;;;;;;;-0.01;100.00;101503.34;697105;28;4360;-63
2023/04/05 01:40:18;;;;;;;8.43;4.97;;;;;;;0.01;100.00;101506.00;695983;28;1512;-63
2023/04/05 01:40:39;;;;;;;8.20;4.93;;;;;;;0.00;100.00;101504.25;696058;28;1476;-63
2023/04/05 01:41:00;;;;;;;8.15;4.93;;;;;;;0.01;100.00;101505.13;698808;28;1262;-63
2023/04/05 01:41:22;;;;;;;8.73;5.20;;;;;;;0.01;100.00;101505.13;699271;28;1711;-63
2023/04/05 01:41:42;;;;;;;7.53;4.88;;;;;;;-0.01;100.00;101508.50;696789;28;1871;-63
2023/04/05 01:42:03;;;;;;;7.75;4.65;;;;;;;-0.02;100.00;101511.00;697449;28;1464;-63
2023/04/05 01:42:25;;;;;;;8.60;4.53;;;;;;;-0.02;100.00;101504.16;695881;28;1581;-63
2023/04/05 01:42:47;;;;;;;7.78;4.50;;;;;;;-0.01;100.00;101507.63;696517;28;4367;-62
2023/04/05 01:43:15;;;;;;;8.43;4.90;;;;;;;-0.03;100.00;101504.06;697804;28;1278;-63
2023/04/05 01:43:36;;;;;;;8.13;4.72;;;;;;;-0.01;100.00;101507.63;698995;28;1409;-63
2023/04/05 01:43:56;;;;;;;7.85;4.60;;;;;;;-0.01;100.00;101513.63;701010;28;1372;-62
2023/04/05 01:44:17;;;;;;;7.77;4.70;;;;;;;-0.02;100.00;101506.72;696341;28;1501;-63
2023/04/05 01:44:37;;;;;;;8.45;4.88;;;;;;;-0.01;100.00;101508.50;696741;28;1437;-63
2023/04/05 01:44:58;;;;;;;8.40;4.93;;;;;;;-0.01;100.00;101508.50;698311;28;1361;-62
2023/04/05 01:45:18;;;;;;;8.10;4.93;;;;;;;0.00;100.00;101509.41;699316;28;1480;-63
2023/04/05 01:45:40;;;;;;;7.73;4.77;;;;;;;-0.03;100.00;101509.22;700493;28;1344;-63
2023/04/05 01:46:00;;;;;;;8.93;4.95;;;;;;;-0.04;100.00;101510.91;696727;28;4785;-63
2023/04/05 01:46:21;;;;;;;8.27;4.97;;;;;;;-0.03;100.00;101510.13;696308;28;1584;-62
2023/04/05 01:46:41;;;;;;;7.82;4.55;;;;;;;-0.03;100.00;101510.13;699244;28;1230;-63
2023/04/05 01:47:01;;;;;;;7.43;4.47;;;;;;;-0.02;100.00;101501.59;699484;28;1269;-63
2023/04/05 01:47:22;;;;;;;6.95;4.60;;;;;;;-0.01;100.00;101510.19;697803;28;1345;-63
2023/04/05 01:47:43;;;;;;;7.30;4.60;;;;;;;0.00;100.00;101509.41;697352;28;1895;-63
2023/04/05 01:48:03;;;;;;;8.90;4.70;;;;;;;0.00;100.00;101509.41;694826;28;1377;-63
2023/04/05 01:48:24;;;;;;;9.23;4.97;;;;;;;0.00;100.00;101506.84;692090;28;1985;-63
2023/04/05 01:48:44;;;;;;;7.37;4.50;;;;;;;-0.02;100.00;101504.16;691871;28;4332;-63
2023/04/05 01:49:04;;;;;;;7.40;4.50;;;;;;;-0.02;100.00;101504.16;692080;28;1437;-63
2023/04/05 01:49:25;;;;;;;7.73;4.63;;;;;;;-0.02;100.00;101504.16;694702;28;1850;-63
2023/04/05 01:49:46;;;;;;;8.90;4.50;;;;;;;-0.02;100.00;101509.28;692517;28;1409;-62
2023/04/05 01:50:07;;;;;;;9.02;4.72;;;;;;;-0.02;100.00;101506.72;690003;28;1469;-63
2023/04/05 01:50:27;;;;;;;8.18;4.85;;;;;;;-0.03;100.00;101504.06;692203;28;1454;-63
2023/04/05 01:50:47;;;;;;;9.30;4.80;;;;;;;-0.02;100.00;101505.84;695630;28;1306;-63
2023/04/05 01:51:08;;;;;;;8.73;4.80;;;;;;;-0.01;100.00;101508.50;694936;28;1293;-63
2023/04/05 01:51:28;;;;;;;7.57;4.80;;;;;;;-0.01;100.00;101505.94;695436;28;1432;-62